Morristown, NJ (07960)

19:48 EST le 19 décembre 2014 (GMT -0500)
Wheatsheaf | Change Station
CLOSE
Current Station
Stations météorologiques personnelles
Location: Morristown Township, NJ
Altitude: 406 ft
Stations météo à proximité

Alt. 406 ft 40.81 °N, 74.50 °W | Updated 12 minutes ago

Couvert
Couvert
30.4 ° F
Paraît 25 ° F
N
5.0
Vent Variable Vent de ONO
Gusts 7.0 mph

Aujourd'hui
Haut(e) -- | Bas -- ° F
--% Risque de précip.
Hier
Haut(e) -- | Bas -- ° F
Precip. -- pouce
7:17 AM 4:32 PM
Lune descendante, 5% visible
Pression 30.16 pouce
Visibilité 10.0 Miles terrestres
Nuages Nuageux 3000 ft
Refroidissement éolien 25 ° F
Point de rosée 23 ° F
Humidité 73%
Précipitations 0.00 pouce
Profondeur de la couche neigeuse Non disponible.
UV 0 sur 12
Pollen .10 sur 12
Qualité de l'air Non disponible.
Flu Activity Non disponible.
METAR KMMU 192345Z 35007G17KT 10SM BKN030 00/M06 A3016

More Conditions Fewer Conditions

Pression 30.16 pouce
Visibilité 10.0 Miles terrestres
Nuages Nuageux 3000 ft
Refroidissement éolien 25 ° F
Point de rosée 23 ° F
Humidité 73%
Précipitations 0.00 pouce
Profondeur de la couche neigeuse Non disponible.
UV 0 sur 12
Pollen .10 sur 12
Qualité de l'air Non disponible.
Flu Activity Non disponible.
METAR KMMU 192345Z 35007G17KT 10SM BKN030 00/M06 A3016

More Conditions Fewer Conditions

10-Day Weather Forecast

Almanac

Astronomie

Dec. 19, 2014 Lever Coucher
Temps réel
Crépuscule civil
Crépuscule nautique
Crépuscule astronomique
Lune
Durée de lumière visible
Longueur du jour
Tomorrow will be .
, % of the Moon is Illuminated

Extrêmes aujourd'hui

State Highs State Lows

Community

WunderPhotos

Upload Photos

1,779,093 Photos téléchargées !

WunderBlogs® & News

Nearby

Qualité de l'air

  Qualité de l'air Indice de la qualité de l'air Polluant
Not available.

Épaisseur de neige

Station Depth Altitude

Activité sismique

Ville Distance Mag. Time & Date
Minimum magnitude displayed is 2.5.

Températures des eaux côtières

Lieu Température

Stations météo à proximité